Time;durP1;ratioP1;P1;durP2;ratioP2;P2;SDS_P1;SDS_P2;PMS_P1;PMS_P2;Temp;Humidity;BMP_temperature;BMP_pressure;BME280_temperature;BME280_humidity;BME280_pressure;Samples;Min_cycle;Max_cycle;Signal;HPM_P1;HPM_P2
2023/01/29 00:01:07;;;;;;;66.90;30.20;;;;;;;-0.97;100.00;99892.92;272706;1269;22298;-88
2023/01/29 00:07:13;;;;;;;47.00;23.50;;;;;;;-0.99;100.00;99890.52;272239;1270;22304;-89
2023/01/29 00:13:15;;;;;;;58.90;26.70;;;;;;;-0.99;100.00;99892.23;272317;1269;23073;-89
2023/01/29 00:19:18;;;;;;;58.40;27.30;;;;;;;-0.97;100.00;99892.33;272527;1269;22336;-88
2023/01/29 00:25:19;;;;;;;62.40;25.40;;;;;;;-0.94;100.00;99897.90;272442;1269;22325;-89
2023/01/29 00:31:23;;;;;;;54.30;25.10;;;;;;;-0.93;100.00;99902.45;272577;1270;22466;-88
2023/01/29 00:37:25;;;;;;;57.80;24.10;;;;;;;-0.91;100.00;99900.84;272611;1269;22447;-87
2023/01/29 00:49:52;;;;;;;46.80;21.30;;;;;;;-0.88;100.00;99907.98;272304;1271;22431;-88
2023/01/29 00:55:54;;;;;;;50.80;23.10;;;;;;;-0.89;100.00;99908.27;272153;1270;23546;-89
2023/01/29 01:14:37;;;;;;;34.00;15.20;;;;;;;-1.05;100.00;99909.09;271976;1264;22316;-88
2023/01/29 01:20:40;;;;;;;24.00;12.40;;;;;;;-1.10;100.00;99915.57;272332;1269;22320;-87
2023/01/29 01:26:42;;;;;;;26.30;11.70;;;;;;;-1.16;100.00;99915.42;272386;1270;22300;-88
2023/01/29 01:32:44;;;;;;;23.20;10.10;;;;;;;-1.23;100.00;99917.34;272540;1269;22174;-88
2023/01/29 01:38:47;;;;;;;22.70;10.80;;;;;;;-1.29;100.00;99920.81;272434;1269;22405;-87
2023/01/29 01:44:53;;;;;;;21.70;11.00;;;;;;;-1.33;100.00;99922.97;272437;1270;23303;-89
2023/01/29 01:51:02;;;;;;;26.30;11.60;;;;;;;-1.37;100.00;99932.77;272258;1270;22351;-89
2023/01/29 01:57:14;;;;;;;23.50;11.10;;;;;;;-1.36;100.00;99933.46;272615;1270;22429;-88
2023/01/29 02:09:58;;;;;;;19.50;9.50;;;;;;;-1.38;100.00;99923.70;270930;1270;23756;-87
2023/01/29 02:16:00;;;;;;;21.50;10.40;;;;;;;-1.38;100.00;99909.20;270004;1270;22589;-87
2023/01/29 02:22:27;;;;;;;21.10;10.20;;;;;;;-1.39;100.00;99897.70;269390;1271;22554;-89
2023/01/29 02:28:47;;;;;;;;;;;;;;;-1.40;100.00;99887.08;269130;1269;22528;-88
2023/01/29 02:41:53;;;;;;;23.50;11.60;;;;;;;-1.40;100.00;99866.61;272338;1263;22579;-88
2023/01/29 02:47:59;;;;;;;25.30;11.40;;;;;;;-1.40;100.00;99877.58;269441;1270;22562;-89
2023/01/29 02:54:36;;;;;;;19.00;10.20;;;;;;;-1.41;100.00;99870.58;270309;1262;22598;-87
2023/01/29 03:00:43;;;;;;;26.30;11.70;;;;;;;-1.44;100.00;99871.45;273299;1270;23489;-89
2023/01/29 03:06:52;;;;;;;15.90;7.70;;;;;;;-1.43;100.00;99867.40;270906;1270;25375;-89
2023/01/29 03:13:01;;;;;;;29.90;13.60;;;;;;;-1.42;100.00;99872.46;273081;1272;22218;-88
2023/01/29 03:19:05;;;;;;;31.00;15.20;;;;;;;-1.42;100.00;99875.32;272094;1270;22431;-88
2023/01/29 03:37:52;;;;;;;28.20;13.20;;;;;;;-1.65;100.00;99903.05;273338;1272;22427;-88
2023/01/29 03:44:11;;;;;;;25.00;12.80;;;;;;;-1.68;100.00;99908.65;272977;1271;22201;-89
2023/01/29 03:50:51;;;;;;;24.00;12.10;;;;;;;-1.70;100.00;99914.50;273074;1270;23825;-89
2023/01/29 03:56:59;;;;;;;25.10;12.10;;;;;;;-1.70;100.00;99913.33;273058;1272;22331;-88
2023/01/29 04:03:05;;;;;;;23.00;11.90;;;;;;;-1.69;100.00;99896.03;272889;1271;22441;-87
2023/01/29 04:09:14;;;;;;;26.50;12.70;;;;;;;-1.68;100.00;99890.71;271146;1261;22342;-88
2023/01/29 04:15:19;;;;;;;26.60;13.50;;;;;;;-1.67;100.00;99885.13;273224;1270;22995;-88
2023/01/29 04:21:23;;;;;;;28.20;13.20;;;;;;;-1.70;100.00;99883.20;273156;1270;22345;-88
2023/01/29 04:27:32;;;;;;;27.40;13.90;;;;;;;-1.71;100.00;99874.35;273134;1270;22341;-87
2023/01/29 04:34:07;;;;;;;24.70;13.20;;;;;;;-1.71;100.00;99868.92;273046;1271;22329;-87
2023/01/29 04:40:32;;;;;;;29.00;14.50;;;;;;;-1.72;100.00;99873.23;272185;1272;22560;-87
2023/01/29 04:46:46;;;;;;;23.70;13.10;;;;;;;-1.75;100.00;99865.55;273114;1270;23019;-88
2023/01/29 04:53:00;;;;;;;26.10;13.90;;;;;;;-1.79;100.00;99846.84;271895;1272;23242;-88
2023/01/29 04:59:14;;;;;;;24.50;13.30;;;;;;;-1.83;100.00;99842.50;272929;1274;22314;-86
2023/01/29 05:05:18;;;;;;;22.70;13.00;;;;;;;-1.87;100.00;99840.27;272011;1272;23399;-86
2023/01/29 05:11:20;;;;;;;28.40;13.70;;;;;;;-1.90;100.00;99839.79;272600;1270;22356;-87
2023/01/29 05:17:22;;;;;;;25.90;11.30;;;;;;;-1.93;100.00;99829.44;272886;1271;22402;-87
2023/01/29 05:23:23;;;;;;;20.40;10.80;;;;;;;-1.98;100.00;99826.13;273057;1272;22535;-87
2023/01/29 05:29:25;;;;;;;18.60;10.50;;;;;;;-2.07;100.00;99833.62;272592;1272;22396;-87
2023/01/29 05:35:28;;;;;;;19.90;10.30;;;;;;;-2.15;100.00;99843.13;273505;1261;22206;-86
2023/01/29 05:41:32;;;;;;;19.70;11.30;;;;;;;-2.25;100.00;99843.26;273569;1278;22226;-86
2023/01/29 05:47:33;;;;;;;16.70;10.10;;;;;;;-2.29;100.00;99851.25;271430;1270;22645;-85
2023/01/29 05:53:55;;;;;;;25.20;11.90;;;;;;;-2.34;99.97;99862.41;271830;1272;22599;-86
2023/01/29 05:59:57;;;;;;;17.60;10.80;;;;;;;-2.39;99.93;99876.95;272923;1270;22568;-85
2023/01/29 06:06:00;;;;;;;16.80;9.40;;;;;;;-2.39;99.97;99880.06;270062;1273;22527;-85
2023/01/29 06:12:05;;;;;;;17.60;9.50;;;;;;;-2.39;99.66;99885.80;271454;1270;22397;-84
2023/01/29 06:18:07;;;;;;;18.00;9.80;;;;;;;-2.39;99.58;99887.08;271580;1257;22674;-86
2023/01/29 06:24:11;;;;;;;15.40;8.90;;;;;;;-2.41;99.29;99892.66;270642;1272;23475;-85
2023/01/29 06:30:16;;;;;;;15.60;9.40;;;;;;;-2.44;98.74;99899.20;269892;1272;25262;-83
2023/01/29 06:36:18;;;;;;;15.30;8.40;;;;;;;-2.50;98.33;99899.80;271956;1257;22373;-85
2023/01/29 06:42:34;;;;;;;16.40;7.30;;;;;;;-2.55;97.81;99908.76;272299;1262;22429;-84
2023/01/29 06:48:59;;;;;;;15.40;7.40;;;;;;;-2.57;97.95;99913.00;272247;1272;22416;-86
2023/01/29 06:55:12;;;;;;;12.40;7.40;;;;;;;-2.56;97.56;99910.53;269730;1269;22624;-87
2023/01/29 07:01:14;;;;;;;12.60;7.00;;;;;;;-2.57;97.25;99920.77;270918;1262;22346;-86
2023/01/29 07:07:16;;;;;;;10.70;7.00;;;;;;;-2.62;96.71;99916.73;270496;1255;23027;-86
2023/01/29 07:13:18;;;;;;;11.80;6.60;;;;;;;-2.68;96.03;99914.20;270592;1270;22294;-86
2023/01/29 07:19:20;;;;;;;15.70;7.40;;;;;;;-2.72;95.76;99924.39;273530;1277;22209;-84
2023/01/29 07:25:22;;;;;;;9.60;5.90;;;;;;;-2.69;95.65;99926.70;272974;1260;22301;-86
2023/01/29 07:31:24;;;;;;;11.60;6.90;;;;;;;-2.68;95.39;99927.77;273105;1272;22331;-85
2023/01/29 07:37:26;;;;;;;10.90;6.50;;;;;;;-2.64;95.62;99923.80;273097;1270;22343;-85
2023/01/29 07:43:27;;;;;;;14.40;8.40;;;;;;;-2.58;95.56;99929.50;273322;1271;22933;-85
2023/01/29 07:49:31;;;;;;;14.10;8.30;;;;;;;-2.55;95.53;99937.06;273002;1257;22984;-85
2023/01/29 07:55:38;;;;;;;14.10;7.30;;;;;;;-2.54;95.76;99936.36;272026;1271;22567;-86
2023/01/29 08:01:39;;;;;;;;;;;;;;;-2.48;95.45;99944.56;271898;1270;22484;-85
2023/01/29 08:07:41;;;;;;;18.60;8.40;;;;;;;-2.39;95.36;99955.84;273027;1266;22382;-84
2023/01/29 08:13:43;;;;;;;16.30;8.10;;;;;;;-2.21;95.43;99958.80;273287;1270;153896;-84
2023/01/29 08:19:44;;;;;;;10.70;6.00;;;;;;;-2.13;95.01;99965.77;272921;1272;22705;-84
2023/01/29 08:25:46;;;;;;;15.70;6.90;;;;;;;-1.93;95.04;99973.43;271890;1260;23073;-86
2023/01/29 08:31:48;;;;;;;11.90;7.10;;;;;;;-1.60;95.21;99989.27;272047;1267;22342;-87
2023/01/29 08:37:54;;;;;;;14.50;7.10;;;;;;;-1.53;94.52;99989.70;270590;1259;22348;-86
2023/01/29 08:43:56;;;;;;;10.90;6.80;;;;;;;-1.59;94.53;99998.35;272783;1270;22229;-86
2023/01/29 08:49:58;;;;;;;12.50;6.90;;;;;;;-1.62;94.26;99999.01;272998;1271;22339;-84
2023/01/29 08:56:03;;;;;;;13.80;7.30;;;;;;;-1.61;94.52;99987.89;272775;1272;22439;-86
2023/01/29 09:02:05;;;;;;;14.50;7.20;;;;;;;-1.43;95.05;99983.44;273099;1261;22373;-86
2023/01/29 09:08:08;;;;;;;14.90;8.30;;;;;;;-0.85;96.02;99978.27;271671;1272;24224;-85
2023/01/29 09:14:11;;;;;;;14.70;8.40;;;;;;;-0.65;95.18;99971.77;272388;1270;22343;-87
2023/01/29 09:20:13;;;;;;;14.00;8.00;;;;;;;-0.56;94.67;99968.54;272686;1263;22626;-85
2023/01/29 09:26:15;;;;;;;19.40;8.40;;;;;;;-0.30;94.82;99970.73;273265;1270;22332;-85
2023/01/29 09:32:16;;;;;;;13.30;8.30;;;;;;;-0.12;93.96;99971.98;272925;1271;23112;-86
2023/01/29 09:38:18;;;;;;;14.80;8.80;;;;;;;-0.25;93.53;99965.25;272936;1271;24309;-86
2023/01/29 09:44:30;;;;;;;15.60;8.60;;;;;;;-0.37;93.84;99955.98;272695;1264;23844;-85
2023/01/29 09:50:39;;;;;;;20.10;9.60;;;;;;;-0.56;93.80;99943.69;270864;1271;22581;-86
2023/01/29 09:56:42;;;;;;;17.50;9.50;;;;;;;-0.69;93.90;99928.34;269625;1270;22549;-84
2023/01/29 10:02:53;;;;;;;17.60;9.20;;;;;;;-0.84;93.92;99915.42;272023;1271;22372;-87
2023/01/29 10:09:33;;;;;;;19.60;9.20;;;;;;;-1.02;93.60;99909.88;270563;1270;22738;-87
2023/01/29 10:15:50;;;;;;;17.00;9.90;;;;;;;-0.95;93.73;99906.52;270378;1270;22531;-86
2023/01/29 10:22:03;;;;;;;23.80;10.90;;;;;;;-0.84;93.50;99897.95;270553;1271;22784;-89
2023/01/29 10:28:18;;;;;;;24.40;11.70;;;;;;;-0.78;93.23;99901.13;269970;1270;22735;-86
2023/01/29 10:34:22;;;;;;;23.40;12.70;;;;;;;-0.78;93.08;99893.93;269655;1272;22551;-86
2023/01/29 10:40:48;;;;;;;22.50;13.00;;;;;;;-0.86;93.08;99881.95;271456;1272;22406;-86
2023/01/29 10:47:06;;;;;;;28.20;13.10;;;;;;;-0.71;93.73;99864.30;272537;1263;22429;-88
2023/01/29 10:53:39;;;;;;;29.60;13.10;;;;;;;-0.50;93.53;99846.02;271847;1271;22559;-87
2023/01/29 10:59:59;;;;;;;24.90;13.60;;;;;;;-0.06;93.79;99822.88;271627;1270;23602;-86
2023/01/29 11:06:19;;;;;;;26.10;15.30;;;;;;;0.52;93.49;99806.95;272046;1268;22578;-87
2023/01/29 11:12:29;;;;;;;23.60;14.50;;;;;;;1.15;93.12;99794.57;270850;1271;22184;-87
2023/01/29 11:18:48;;;;;;;24.70;14.10;;;;;;;1.18;91.20;99775.11;271868;1270;22335;-87
2023/01/29 11:25:09;;;;;;;27.20;13.80;;;;;;;0.64;90.32;99764.31;272083;1271;22575;-87
2023/01/29 11:31:35;;;;;;;18.00;10.90;;;;;;;0.32;90.26;99754.31;270628;1271;23308;-87
2023/01/29 11:37:39;;;;;;;18.50;10.40;;;;;;;0.04;90.19;99746.86;269894;1271;22415;-88
2023/01/29 11:43:41;;;;;;;18.00;9.50;;;;;;;-0.13;90.83;99738.49;271012;1271;22331;-87
2023/01/29 11:49:48;;;;;;;17.70;9.50;;;;;;;-0.22;90.66;99728.27;272946;1272;22387;-87
2023/01/29 11:55:50;;;;;;;17.30;9.00;;;;;;;-0.30;90.32;99719.96;272646;1271;22430;-88
2023/01/29 12:01:53;;;;;;;21.20;9.80;;;;;;;-0.36;90.17;99708.85;272682;1268;22324;-87
2023/01/29 12:07:56;;;;;;;19.60;9.80;;;;;;;-0.38;90.32;99700.43;270378;1270;22328;-87
2023/01/29 12:14:04;;;;;;;20.10;10.20;;;;;;;-0.32;90.58;99694.27;269681;1264;22619;-87
2023/01/29 12:20:12;;;;;;;19.20;9.00;;;;;;;-0.34;89.63;99691.23;272737;1264;22983;-87
2023/01/29 12:26:18;;;;;;;18.30;9.20;;;;;;;-0.39;88.86;99690.91;271146;1270;23416;-88
2023/01/29 12:32:31;;;;;;;20.40;9.90;;;;;;;-0.35;89.01;99695.50;269553;1272;22549;-88
2023/01/29 12:38:35;;;;;;;20.70;10.30;;;;;;;-0.34;88.97;99702.41;270046;1272;24269;-89
2023/01/29 12:44:47;;;;;;;22.90;9.40;;;;;;;-0.35;88.78;99703.40;270612;1270;23003;-89
2023/01/29 12:50:52;;;;;;;19.90;10.60;;;;;;;-0.44;88.52;99706.36;272083;1271;22503;-87
2023/01/29 12:56:57;;;;;;;23.80;11.90;;;;;;;-0.58;88.34;99700.16;270988;1272;22515;-88
2023/01/29 13:03:32;;;;;;;22.00;10.90;;;;;;;-0.69;88.46;99706.93;270752;1268;22580;-88
2023/01/29 13:09:36;;;;;;;24.90;10.40;;;;;;;-0.82;88.50;99697.77;271846;1270;22331;-88
2023/01/29 13:15:39;;;;;;;20.30;10.10;;;;;;;-0.88;88.11;99683.63;272944;1259;22567;-88
2023/01/29 13:21:42;;;;;;;19.30;9.90;;;;;;;-0.91;87.95;99680.91;273018;1270;22376;-88
2023/01/29 13:27:46;;;;;;;22.40;10.80;;;;;;;-0.78;88.31;99675.91;273076;1271;23292;-88
2023/01/29 13:34:02;;;;;;;22.30;11.10;;;;;;;-0.76;88.14;99673.05;272790;1262;23451;-89
2023/01/29 13:40:07;;;;;;;22.40;10.70;;;;;;;-0.81;87.79;99667.92;272987;1271;23279;-88
2023/01/29 13:46:12;;;;;;;19.30;9.50;;;;;;;-0.85;87.53;99669.27;271779;1271;22850;-89
2023/01/29 13:52:20;;;;;;;17.60;8.70;;;;;;;-0.87;87.59;99675.52;273116;1265;22391;-89
2023/01/29 13:58:31;;;;;;;20.30;9.90;;;;;;;-0.91;87.63;99665.98;273012;1271;22328;-88
2023/01/29 14:04:34;;;;;;;17.50;8.90;;;;;;;-0.95;87.64;99659.28;272939;1270;23356;-88
2023/01/29 14:10:37;;;;;;;19.90;9.90;;;;;;;-1.04;86.82;99662.93;272863;1272;23018;-88
2023/01/29 14:16:38;;;;;;;19.70;8.30;;;;;;;-1.12;86.91;99668.48;271438;1270;22235;-88
2023/01/29 14:22:40;;;;;;;18.70;8.30;;;;;;;-1.11;86.85;99671.70;272559;1270;22566;-89
2023/01/29 14:28:42;;;;;;;18.70;8.30;;;;;;;-1.14;86.90;99662.75;269484;1272;22401;-89
2023/01/29 14:34:47;;;;;;;18.90;8.90;;;;;;;-1.22;86.91;99647.40;272874;1270;22406;-89
2023/01/29 14:40:51;;;;;;;18.60;9.70;;;;;;;-1.33;86.77;99646.48;272855;1270;23848;-89
2023/01/29 14:46:52;;;;;;;18.70;9.70;;;;;;;-1.41;87.11;99645.59;272889;1270;23009;-89
2023/01/29 14:53:16;;;;;;;17.80;9.80;;;;;;;-1.46;87.26;99650.73;271235;1263;23315;-88
2023/01/29 14:59:21;;;;;;;18.90;9.20;;;;;;;-1.56;87.00;99657.83;270519;1271;22540;-89
2023/01/29 15:05:27;;;;;;;16.90;9.50;;;;;;;-1.66;86.99;99654.84;272447;1272;22560;-88
2023/01/29 15:11:34;;;;;;;;;;;;;;;-1.76;87.27;99651.69;270319;1271;22544;-88
2023/01/29 15:17:48;;;;;;;29.10;12.70;;;;;;;-1.84;87.44;99639.29;272787;1272;22588;-89
2023/01/29 15:24:03;;;;;;;24.10;12.70;;;;;;;-1.91;87.30;99636.34;269673;1272;22513;-88
2023/01/29 15:30:07;;;;;;;34.50;16.30;;;;;;;-1.98;87.46;99625.59;269520;1270;22667;-89
2023/01/29 15:36:20;;;;;;;28.50;13.30;;;;;;;-2.07;87.56;99615.72;270044;1271;22560;-88
2023/01/29 15:42:24;;;;;;;26.90;13.50;;;;;;;-2.13;87.59;99605.77;271377;1272;23313;-88
2023/01/29 15:48:31;;;;;;;28.90;13.50;;;;;;;-2.19;87.84;99599.37;272781;1270;22348;-90
2023/01/29 15:54:33;;;;;;;27.80;13.70;;;;;;;-2.24;88.10;99615.49;272578;1272;23748;-88
2023/01/29 16:00:36;;;;;;;31.70;15.70;;;;;;;-2.28;87.98;99613.53;270533;1271;22315;-90
2023/01/29 16:06:40;;;;;;;32.20;16.30;;;;;;;-2.33;88.16;99605.63;269623;1272;22560;-89
2023/01/29 16:12:42;;;;;;;37.40;18.30;;;;;;;-2.39;88.22;99596.59;269872;1272;24286;-89
2023/01/29 16:18:47;;;;;;;36.90;18.90;;;;;;;-2.42;88.41;99598.81;270910;1268;22896;-88
2023/01/29 16:24:53;;;;;;;28.40;15.00;;;;;;;-2.45;88.35;99597.54;271231;1272;22300;-89
2023/01/29 16:30:59;;;;;;;31.00;16.70;;;;;;;-2.49;88.26;99597.70;269932;1272;23223;-88
2023/01/29 16:37:04;;;;;;;33.20;15.50;;;;;;;-2.52;88.27;99603.62;270471;1272;25240;-88
2023/01/29 16:43:18;;;;;;;39.60;19.00;;;;;;;-2.53;88.35;99616.88;271563;1272;22568;-88
2023/01/29 16:49:26;;;;;;;50.10;22.00;;;;;;;-2.52;88.52;99614.30;272082;1272;23395;-88
2023/01/29 16:55:32;;;;;;;45.00;20.10;;;;;;;-2.50;88.35;99616.91;271278;1269;22542;-89
2023/01/29 17:01:34;;;;;;;;;;;;;;;-2.47;88.51;99619.36;272552;1272;23950;-87
2023/01/29 17:07:37;;;;;;;39.70;17.80;;;;;;;-2.44;88.28;99618.49;273064;1271;22340;-87
2023/01/29 17:13:44;;;;;;;35.40;16.80;;;;;;;-2.44;88.07;99608.95;269663;1271;24002;-88
2023/01/29 17:19:46;;;;;;;35.70;16.50;;;;;;;-2.44;87.92;99602.30;270396;1270;22562;-88
2023/01/29 17:25:53;;;;;;;40.40;20.50;;;;;;;-2.43;88.13;99595.16;269921;1270;22247;-88
2023/01/29 17:31:55;;;;;;;44.40;21.80;;;;;;;-2.43;88.32;99586.70;270575;1270;22526;-87
2023/01/29 17:37:57;;;;;;;48.90;22.00;;;;;;;-2.44;88.30;99574.41;270919;1271;22397;-88
2023/01/29 17:43:59;;;;;;;50.30;22.80;;;;;;;-2.45;88.32;99565.95;270903;1272;22501;-87
2023/01/29 17:50:01;;;;;;;47.50;23.60;;;;;;;-2.48;88.28;99564.36;271590;1272;23036;-87
2023/01/29 17:56:04;;;;;;;50.80;25.20;;;;;;;-2.49;88.47;99575.08;271548;1272;23040;-85
2023/01/29 18:02:05;;;;;;;43.70;22.40;;;;;;;-2.47;88.86;99564.73;272100;1271;22337;-87
2023/01/29 18:08:29;;;;;;;48.90;23.30;;;;;;;-2.46;88.72;99558.02;271711;1269;22520;-88
2023/01/29 18:14:31;;;;;;;54.10;24.40;;;;;;;-2.41;88.72;99552.15;272604;1270;22452;-86
2023/01/29 18:20:37;;;;;;;54.90;24.70;;;;;;;-2.35;88.65;99542.56;272501;1272;22301;-88
2023/01/29 18:26:39;;;;;;;56.10;26.60;;;;;;;-2.30;88.91;99538.83;272454;1257;22340;-87
2023/01/29 18:32:41;;;;;;;50.00;23.40;;;;;;;-2.25;88.87;99539.29;262940;1272;10001920;-87
2023/01/29 18:38:43;;;;;;;46.00;22.50;;;;;;;-2.24;88.74;99545.92;272216;1272;23707;-87
2023/01/29 18:44:45;;;;;;;57.70;26.10;;;;;;;-2.22;88.85;99547.42;272728;1273;22417;-88
2023/01/29 18:50:47;;;;;;;58.10;26.90;;;;;;;-2.19;88.77;99537.41;270967;1272;22551;-88
2023/01/29 18:56:50;;;;;;;67.10;27.60;;;;;;;-2.20;88.74;99525.20;272400;1262;23880;-87
2023/01/29 19:02:51;;;;;;;65.80;27.30;;;;;;;-2.21;88.80;99521.73;270603;1271;22340;-87
2023/01/29 19:08:54;;;;;;;57.80;26.30;;;;;;;-2.20;88.90;99521.48;272859;1272;22256;-87
2023/01/29 19:14:56;;;;;;;61.30;27.20;;;;;;;-2.18;89.08;99526.47;272956;1272;22213;-87
2023/01/29 19:20:58;;;;;;;55.10;25.80;;;;;;;-2.15;89.36;99519.95;272939;1270;23111;-87
2023/01/29 19:27:00;;;;;;;58.40;25.40;;;;;;;-2.12;89.30;99495.31;270943;1272;22339;-87
2023/01/29 19:33:05;;;;;;;55.60;25.70;;;;;;;-2.10;89.41;99485.16;272432;1272;23145;-87
2023/01/29 19:39:08;;;;;;;58.90;26.90;;;;;;;-2.10;89.28;99484.52;272886;1271;22355;-88
2023/01/29 19:45:10;;;;;;;63.00;27.70;;;;;;;-2.11;89.33;99485.96;272823;1272;23289;-88
2023/01/29 19:51:13;;;;;;;56.60;24.80;;;;;;;-2.09;89.60;99485.30;273028;1272;22301;-89
2023/01/29 19:57:15;;;;;;;49.50;23.60;;;;;;;-2.07;89.67;99481.00;272848;1272;23484;-87
2023/01/29 20:03:18;;;;;;;58.00;27.10;;;;;;;-2.05;89.76;99467.84;272896;1270;22370;-87
2023/01/29 20:09:21;;;;;;;62.40;26.00;;;;;;;-2.03;89.59;99465.73;269985;1272;22701;-87
2023/01/29 20:15:26;;;;;;;58.90;24.00;;;;;;;-2.04;89.81;99469.77;270745;1270;102577;-87
2023/01/29 20:21:28;;;;;;;56.50;25.40;;;;;;;-2.06;89.75;99465.59;271824;1271;22324;-87
2023/01/29 20:27:30;;;;;;;66.70;29.20;;;;;;;-2.07;90.06;99459.42;272518;1270;22411;-87
2023/01/29 20:33:33;;;;;;;58.10;26.90;;;;;;;-2.05;90.21;99458.66;272244;1272;23277;-87
2023/01/29 20:39:35;;;;;;;65.00;29.10;;;;;;;-2.02;90.20;99446.63;271700;1272;23380;-87
2023/01/29 20:45:40;;;;;;;60.70;26.50;;;;;;;-2.00;90.43;99439.79;272016;1272;23539;-86
2023/01/29 20:51:42;;;;;;;55.20;25.60;;;;;;;-1.99;90.45;99436.62;273055;1270;22203;-87
2023/01/29 20:57:44;;;;;;;57.40;23.60;;;;;;;-1.99;90.37;99431.98;272968;1272;23628;-86
2023/01/29 21:03:46;;;;;;;50.50;23.10;;;;;;;-1.98;90.33;99428.88;272321;1272;23349;-86
2023/01/29 21:09:48;;;;;;;52.10;23.60;;;;;;;-1.98;90.58;99428.77;269753;1272;22559;-86
2023/01/29 21:15:50;;;;;;;51.70;24.70;;;;;;;-1.96;90.54;99425.33;269882;1273;22532;-87
2023/01/29 21:21:51;;;;;;;56.80;26.50;;;;;;;-1.95;90.64;99423.32;269951;1270;24098;-87
2023/01/29 21:27:59;;;;;;;58.30;26.60;;;;;;;-1.94;90.58;99425.23;270480;1270;22322;-87
2023/01/29 21:34:05;;;;;;;59.00;27.10;;;;;;;-1.93;90.69;99414.17;271714;1272;22578;-87
2023/01/29 21:40:07;;;;;;;57.20;26.40;;;;;;;-1.92;90.67;99404.94;271246;1272;24715;-87
2023/01/29 21:46:12;;;;;;;52.30;25.00;;;;;;;-1.90;90.87;99399.50;270705;1271;22660;-87
2023/01/29 21:52:14;;;;;;;59.80;25.50;;;;;;;-1.91;91.00;99391.41;270405;1272;23277;-87
2023/01/29 21:58:18;;;;;;;56.40;25.60;;;;;;;-1.94;90.88;99382.25;270440;1270;22505;-86
2023/01/29 22:04:21;;;;;;;57.50;26.10;;;;;;;-2.01;90.69;99364.04;270514;1272;22553;-86
2023/01/29 22:10:23;;;;;;;58.70;27.10;;;;;;;-2.10;90.95;99355.02;271460;1271;22357;-86
2023/01/29 22:16:24;;;;;;;57.80;27.40;;;;;;;-2.20;90.94;99343.80;271799;1272;22217;-86
2023/01/29 22:22:27;;;;;;;57.10;27.40;;;;;;;-2.29;91.22;99336.48;272802;1270;22254;-86
2023/01/29 22:28:28;;;;;;;62.60;28.40;;;;;;;-2.34;91.54;99325.47;273124;1271;22492;-85
2023/01/29 22:34:30;;;;;;;60.70;24.10;;;;;;;-2.32;92.07;99314.95;272846;1272;22939;-86
2023/01/29 22:40:32;;;;;;;58.60;25.70;;;;;;;-2.37;91.90;99302.61;271204;1271;22355;-86
2023/01/29 22:46:33;;;;;;;62.60;25.30;;;;;;;-2.46;92.13;99292.51;272991;1260;22233;-86
2023/01/29 22:52:41;;;;;;;60.50;25.10;;;;;;;-2.55;92.00;99276.94;273010;1270;23801;-85
2023/01/29 22:58:43;;;;;;;60.50;26.00;;;;;;;-2.63;92.34;99268.23;273041;1261;22429;-84
2023/01/29 23:04:44;;;;;;;62.00;27.00;;;;;;;-2.67;92.53;99262.10;273187;1270;22347;-85
2023/01/29 23:10:46;;;;;;;66.10;27.50;;;;;;;-2.72;92.62;99258.07;272490;1271;23516;-84
2023/01/29 23:16:48;;;;;;;59.00;29.00;;;;;;;-2.73;93.29;99253.95;272996;1271;22407;-84
2023/01/29 23:22:50;;;;;;;65.20;28.80;;;;;;;-2.71;93.84;99240.39;270922;1271;22952;-84
2023/01/29 23:28:51;;;;;;;68.30;31.30;;;;;;;-2.66;94.31;99231.29;273310;1271;22261;-84
2023/01/29 23:34:53;;;;;;;64.20;29.40;;;;;;;-2.62;94.42;99225.29;273166;1270;22391;-84
2023/01/29 23:40:56;;;;;;;66.50;29.60;;;;;;;-2.61;94.46;99224.19;273285;1270;22425;-84
2023/01/29 23:46:58;;;;;;;70.00;29.90;;;;;;;-2.55;94.68;99214.92;273657;1272;22382;-84
2023/01/29 23:53:00;;;;;;;63.00;27.00;;;;;;;-2.50;94.34;99200.88;272943;1272;23071;-84
2023/01/29 23:59:16;;;;;;;66.50;30.40;;;;;;;-2.49;94.10;99182.41;273290;1265;23300;-85
